Time;durP1;ratioP1;P1;durP2;ratioP2;P2;SDS_P1;SDS_P2;PMS_P1;PMS_P2;Temp;Humidity;BMP_temperature;BMP_pressure;BME280_temperature;BME280_humidity;BME280_pressure;Samples;Min_cycle;Max_cycle;Signal;HPM_P1;HPM_P2
2023/02/20 00:00:17;;;;;;;6.20;3.50;;;4.70;99.90;;;;;;5050506;28;20028;-89
2023/02/20 00:02:43;;;;;;;8.07;4.57;;;4.80;99.90;;;;;;5066673;28;20115;-89
2023/02/20 00:05:11;;;;;;;6.35;2.90;;;4.80;99.90;;;;;;5069218;28;20198;-89
2023/02/20 00:07:37;;;;;;;7.40;4.30;;;4.80;99.90;;;;;;5082806;28;20059;-89
2023/02/20 00:10:03;;;;;;;7.70;4.43;;;4.80;99.90;;;;;;5046755;28;20484;-90
2023/02/20 00:12:29;;;;;;;9.90;5.25;;;4.80;99.90;;;;;;5052576;28;20032;-88
2023/02/20 00:14:54;;;;;;;9.57;5.35;;;4.80;99.90;;;;;;5038558;28;20083;-89
2023/02/20 00:17:20;;;;;;;7.07;4.50;;;4.90;99.90;;;;;;5050343;28;20050;-89
2023/02/20 00:19:46;;;;;;;6.82;4.80;;;4.90;99.90;;;;;;5027788;28;20044;-89
2023/02/20 00:22:11;;;;;;;11.88;6.85;;;5.00;99.90;;;;;;5050327;28;20028;-89
2023/02/20 00:24:37;;;;;;;8.43;4.53;;;5.00;99.90;;;;;;5030663;28;20115;-89
2023/02/20 00:27:03;;;;;;;11.10;6.93;;;5.00;99.90;;;;;;5049920;28;20037;-88
2023/02/20 00:29:28;;;;;;;9.30;6.05;;;5.10;99.90;;;;;;5050909;28;20583;-88
2023/02/20 00:31:57;;;;;;;9.13;5.38;;;5.00;99.90;;;;;;5036421;28;20423;-88
2023/02/20 00:34:26;;;;;;;10.75;5.88;;;5.00;99.90;;;;;;5031064;28;20480;-89
2023/02/20 00:36:52;;;;;;;8.50;4.40;;;5.00;99.90;;;;;;5052454;28;20071;-88
2023/02/20 00:39:18;;;;;;;9.20;5.22;;;5.10;99.90;;;;;;5066644;28;20056;-91
2023/02/20 00:41:44;;;;;;;10.60;5.28;;;5.10;99.90;;;;;;5040741;28;20033;-89
2023/02/20 00:44:10;;;;;;;8.82;5.43;;;5.20;99.90;;;;;;5051828;28;20021;-89
2023/02/20 00:46:36;;;;;;;10.68;6.63;;;5.20;99.90;;;;;;5049371;28;20046;-88
2023/02/20 00:49:02;;;;;;;9.82;5.68;;;5.20;99.90;;;;;;5050788;28;20021;-87
2023/02/20 00:51:47;;;;;;;9.18;5.78;;;5.20;99.90;;;;;;5052411;28;20384;-87
2023/02/20 00:54:12;;;;;;;9.35;5.55;;;5.30;99.90;;;;;;5046983;28;20029;-90
2023/02/20 00:56:38;;;;;;;15.00;9.00;;;5.30;99.90;;;;;;5067184;28;20776;-89
2023/02/20 00:59:04;;;;;;;13.85;7.18;;;5.40;99.90;;;;;;5046848;28;20033;-87
2023/02/20 01:01:30;;;;;;;12.05;6.35;;;5.40;99.90;;;;;;5033177;28;20083;-88
2023/02/20 01:03:56;;;;;;;11.45;6.10;;;5.30;99.90;;;;;;5051894;28;20039;-89
2023/02/20 01:06:22;;;;;;;10.73;6.35;;;5.30;99.90;;;;;;5043132;28;20111;-89
2023/02/20 01:08:49;;;;;;;11.07;5.53;;;5.30;99.90;;;;;;5051820;28;20028;-89
2023/02/20 01:11:15;;;;;;;8.05;4.65;;;5.40;99.90;;;;;;5066766;28;20051;-89
2023/02/20 01:13:40;;;;;;;8.75;4.72;;;5.40;99.90;;;;;;5051140;28;20039;-89
2023/02/20 01:16:06;;;;;;;10.40;5.38;;;5.40;99.90;;;;;;5052033;28;20373;-89
2023/02/20 01:18:32;;;;;;;9.43;5.15;;;5.40;99.90;;;;;;5065580;28;20054;-89
2023/02/20 01:20:58;;;;;;;10.05;5.88;;;5.40;99.90;;;;;;5076090;28;20030;-89
2023/02/20 01:23:24;;;;;;;11.38;6.15;;;5.40;99.90;;;;;;5049790;28;20032;-89
2023/02/20 01:25:52;;;;;;;9.90;5.68;;;5.40;99.90;;;;;;5069157;28;20579;-88
2023/02/20 01:28:18;;;;;;;8.65;4.88;;;5.30;99.90;;;;;;5053586;28;20464;-89
2023/02/20 01:30:43;;;;;;;9.50;5.13;;;5.20;99.90;;;;;;5052712;28;20035;-89
2023/02/20 01:33:09;;;;;;;9.57;4.45;;;5.20;99.90;;;;;;5066836;28;20024;-88
2023/02/20 01:35:35;;;;;;;9.27;5.82;;;5.20;99.90;;;;;;5049010;28;20029;-88
2023/02/20 01:38:05;;;;;;;11.45;5.88;;;5.20;99.90;;;;;;5082892;28;20036;-89
2023/02/20 01:40:32;;;;;;;8.60;5.13;;;5.20;99.90;;;;;;5048177;28;20170;-89
2023/02/20 01:43:00;;;;;;;10.07;5.32;;;5.10;99.90;;;;;;5049680;28;20035;-90
2023/02/20 01:45:34;;;;;;;11.55;5.65;;;5.10;99.90;;;;;;5049518;28;20115;-88
2023/02/20 01:48:01;;;;;;;9.60;5.22;;;5.10;99.90;;;;;;5068280;28;20025;-89
2023/02/20 01:50:37;;;;;;;11.15;5.30;;;5.00;99.90;;;;;;5049394;28;20029;-89
2023/02/20 01:53:14;;;;;;;10.13;6.10;;;5.10;99.90;;;;;;5049171;28;20028;-89
2023/02/20 01:55:50;;;;;;;9.45;5.15;;;5.10;99.90;;;;;;5064005;28;20035;-89
2023/02/20 01:58:44;;;;;;;11.68;6.28;;;5.00;99.90;;;;;;5062256;28;20028;-89
2023/02/20 02:01:11;;;;;;;14.70;7.00;;;5.00;99.90;;;;;;5065603;28;20135;-89
2023/02/20 02:03:40;;;;;;;8.00;5.13;;;5.00;99.90;;;;;;5049484;28;20051;-89
2023/02/20 02:06:08;;;;;;;8.98;4.82;;;4.90;99.90;;;;;;5051538;28;20059;-89
2023/02/20 02:08:36;;;;;;;9.50;5.88;;;4.90;99.90;;;;;;5047784;28;20020;-88
2023/02/20 02:11:03;;;;;;;9.90;6.05;;;4.90;99.90;;;;;;5067256;28;20048;-89
2023/02/20 02:13:35;;;;;;;10.57;5.65;;;4.80;99.90;;;;;;5075035;28;20063;-88
2023/02/20 02:16:38;;;;;;;13.30;6.15;;;4.80;99.90;;;;;;5047124;28;20472;-89
2023/02/20 02:19:41;;;;;;;12.30;6.60;;;4.80;99.90;;;;;;5048909;28;20071;-89
2023/02/20 02:22:48;;;;;;;10.90;6.75;;;4.80;99.90;;;;;;5049498;28;20480;-89
2023/02/20 02:25:31;;;;;;;9.70;5.00;;;4.80;99.90;;;;;;5047625;28;20489;-89
2023/02/20 02:28:12;;;;;;;10.57;6.22;;;4.70;99.90;;;;;;5068068;28;20024;-89
2023/02/20 02:30:57;;;;;;;9.93;5.43;;;4.80;99.90;;;;;;5048074;28;20038;-89
2023/02/20 02:33:31;;;;;;;12.65;7.22;;;4.70;99.90;;;;;;5055611;28;20060;-89
2023/02/20 02:36:27;;;;;;;12.27;6.85;;;4.70;99.90;;;;;;5068899;28;20032;-88
2023/02/20 02:39:08;;;;;;;10.52;6.45;;;4.70;99.90;;;;;;5070958;28;20085;-89
2023/02/20 02:41:37;;;;;;;14.05;7.30;;;4.70;99.90;;;;;;5071853;28;20032;-89
2023/02/20 02:44:30;;;;;;;13.25;8.05;;;4.70;99.90;;;;;;5055606;28;20037;-89
2023/02/20 02:46:57;;;;;;;10.70;6.28;;;4.80;99.90;;;;;;5067508;28;20107;-89
2023/02/20 02:49:48;;;;;;;11.38;5.97;;;4.80;99.90;;;;;;5054785;28;20016;-89
2023/02/20 02:52:37;;;;;;;16.00;7.87;;;4.70;99.90;;;;;;5068746;28;20119;-88
2023/02/20 02:55:06;;;;;;;12.65;6.05;;;4.80;99.90;;;;;;5079523;28;20036;-89
2023/02/20 02:57:32;;;;;;;12.68;7.18;;;4.70;99.90;;;;;;5071070;28;20451;-89
2023/02/20 03:00:08;;;;;;;12.77;6.75;;;4.70;99.90;;;;;;5055631;28;20123;-88
2023/02/20 03:02:43;;;;;;;12.77;6.40;;;4.80;99.90;;;;;;5081595;28;20036;-89
2023/02/20 03:05:14;;;;;;;10.40;4.13;;;4.80;99.90;;;;;;5049641;28;20127;-87
2023/02/20 03:07:41;;;;;;;11.23;5.55;;;4.80;99.90;;;;;;5065150;28;20029;-88
2023/02/20 03:10:19;;;;;;;13.95;7.40;;;4.90;99.90;;;;;;5077448;28;20037;-89
2023/02/20 03:12:49;;;;;;;17.83;8.77;;;5.00;99.90;;;;;;5050570;28;20086;-88
2023/02/20 03:15:31;;;;;;;13.95;7.88;;;5.20;99.90;;;;;;5083630;28;20111;-88
2023/02/20 03:18:13;;;;;;;18.75;10.20;;;5.20;99.90;;;;;;5068834;28;20032;-88
2023/02/20 03:20:55;;;;;;;16.00;8.73;;;5.30;99.90;;;;;;5067494;28;20464;-89
2023/02/20 03:23:33;;;;;;;21.15;12.32;;;5.40;99.90;;;;;;5069507;28;20224;-88
2023/02/20 03:26:04;;;;;;;22.70;13.30;;;5.60;99.90;;;;;;5065952;28;20040;-88
2023/02/20 03:28:42;;;;;;;26.13;15.73;;;5.60;99.90;;;;;;5052917;28;20024;-88
2023/02/20 03:31:20;;;;;;;26.15;14.43;;;5.70;99.90;;;;;;5088061;28;20460;-88
2023/02/20 03:45:17;;;;;;;41.03;22.58;;;5.80;99.90;;;;;;5067987;28;20051;-89
2023/02/20 03:47:46;;;;;;;34.53;21.45;;;5.80;99.90;;;;;;5067256;28;20033;-88
2023/02/20 03:50:14;;;;;;;39.55;21.40;;;5.80;99.90;;;;;;5071524;28;20067;-88
2023/02/20 03:52:40;;;;;;;36.05;22.65;;;5.80;99.90;;;;;;5056312;28;20024;-87
2023/02/20 03:55:08;;;;;;;42.65;25.38;;;5.80;99.90;;;;;;5052031;28;20124;-87
2023/02/20 03:57:39;;;;;;;39.75;22.95;;;5.80;99.90;;;;;;5049673;28;20023;-85
2023/02/20 04:00:10;;;;;;;41.05;24.50;;;5.80;99.90;;;;;;5066940;28;20029;-89
2023/02/20 04:02:53;;;;;;;42.38;26.95;;;5.90;99.90;;;;;;5052411;28;20307;-89
2023/02/20 04:05:26;;;;;;;38.55;25.88;;;5.90;99.90;;;;;;5068599;28;20043;-87
2023/02/20 04:08:06;;;;;;;41.03;25.33;;;6.00;99.90;;;;;;5067524;28;20477;-87
2023/02/20 04:10:42;;;;;;;50.13;29.17;;;6.00;99.90;;;;;;5062476;28;20056;-88
2023/02/20 04:13:12;;;;;;;45.28;27.60;;;6.00;99.90;;;;;;5035677;28;20036;-89
2023/02/20 04:15:38;;;;;;;39.10;24.65;;;6.00;99.90;;;;;;5031058;28;20496;-88
2023/02/20 04:18:09;;;;;;;39.63;24.83;;;6.00;99.90;;;;;;5051509;28;20024;-87
2023/02/20 04:20:36;;;;;;;31.23;20.63;;;6.00;99.90;;;;;;5049094;28;20036;-89
2023/02/20 04:23:17;;;;;;;46.47;27.23;;;6.00;99.90;;;;;;5048115;28;20028;-88
2023/02/20 04:25:51;;;;;;;54.53;29.63;;;6.00;99.90;;;;;;5034623;28;20106;-88
2023/02/20 04:28:18;;;;;;;53.13;30.70;;;6.10;99.90;;;;;;5048259;28;20032;-88
2023/02/20 04:30:51;;;;;;;51.20;28.65;;;6.10;99.90;;;;;;5032233;28;20035;-88
2023/02/20 04:33:18;;;;;;;45.88;29.38;;;6.10;99.90;;;;;;5033187;28;20029;-89
2023/02/20 04:35:45;;;;;;;60.42;35.03;;;6.10;99.90;;;;;;5048658;28;20036;-87
2023/02/20 04:38:11;;;;;;;61.85;32.95;;;6.20;99.90;;;;;;5049624;28;20020;-86
2023/02/20 04:40:37;;;;;;;56.42;32.78;;;6.20;99.90;;;;;;5045262;28;20472;-91
2023/02/20 04:43:03;;;;;;;57.10;35.95;;;6.20;99.90;;;;;;5049020;28;20020;-88
2023/02/20 04:45:29;;;;;;;55.65;32.28;;;6.30;99.90;;;;;;5032634;28;20099;-88
2023/02/20 04:47:55;;;;;;;53.65;31.58;;;6.20;99.90;;;;;;5050835;28;20028;-87
2023/02/20 04:50:25;;;;;;;58.13;35.78;;;6.20;99.90;;;;;;5044440;28;20033;-85
2023/02/20 04:52:51;;;;;;;58.78;35.38;;;6.30;99.90;;;;;;5030664;28;20032;-86
2023/02/20 04:55:17;;;;;;;69.43;37.22;;;6.30;99.90;;;;;;5028887;28;20044;-87
2023/02/20 04:57:43;;;;;;;51.38;32.10;;;6.30;99.90;;;;;;5029276;28;20017;-88
2023/02/20 05:00:11;;;;;;;68.35;37.72;;;6.30;99.90;;;;;;5045838;28;20384;-86
2023/02/20 05:02:38;;;;;;;57.55;36.08;;;6.30;99.90;;;;;;5049404;28;20028;-88
2023/02/20 05:05:06;;;;;;;57.58;33.85;;;6.30;99.90;;;;;;5049604;28;20046;-88
2023/02/20 05:07:33;;;;;;;64.28;34.55;;;6.30;99.90;;;;;;5034646;28;20388;-86
2023/02/20 05:09:59;;;;;;;68.82;39.85;;;6.40;99.90;;;;;;5046844;28;20036;-86
2023/02/20 05:12:25;;;;;;;63.08;38.35;;;6.40;99.90;;;;;;5069273;28;20036;-85
2023/02/20 05:14:50;;;;;;;63.53;38.35;;;6.40;99.90;;;;;;5073969;28;20040;-87
2023/02/20 05:17:16;;;;;;;71.65;37.90;;;6.40;99.90;;;;;;5051204;28;20059;-86
2023/02/20 05:19:42;;;;;;;64.15;37.83;;;6.50;99.90;;;;;;5067026;28;20374;-85
2023/02/20 05:22:20;;;;;;;61.35;35.10;;;6.50;99.90;;;;;;5064423;28;20464;-86
2023/02/20 05:24:47;;;;;;;69.03;38.58;;;6.50;99.90;;;;;;5061256;28;20038;-87
2023/02/20 05:27:14;;;;;;;54.05;34.17;;;6.60;99.90;;;;;;5062354;28;20032;-85
2023/02/20 05:29:48;;;;;;;56.10;34.55;;;6.60;99.90;;;;;;5048516;28;20078;-88
2023/02/20 05:32:16;;;;;;;60.67;35.50;;;6.60;99.90;;;;;;5077356;28;20081;-90
2023/02/20 05:34:43;;;;;;;57.03;34.42;;;6.60;99.90;;;;;;5066097;28;20484;-87
2023/02/20 05:37:09;;;;;;;59.45;35.53;;;6.60;99.90;;;;;;5054129;28;20052;-88
2023/02/20 05:39:35;;;;;;;58.85;35.50;;;6.70;99.90;;;;;;5068676;28;20040;-88
2023/02/20 05:42:01;;;;;;;52.78;32.05;;;6.70;99.90;;;;;;5062032;28;20032;-87
2023/02/20 05:44:26;;;;;;;49.28;33.15;;;6.70;99.90;;;;;;5051203;28;20052;-88
2023/02/20 05:46:55;;;;;;;46.10;31.25;;;6.70;99.90;;;;;;5069305;28;20024;-89
2023/02/20 05:49:21;;;;;;;51.72;32.40;;;6.80;99.90;;;;;;5068703;28;20029;-88
2023/02/20 05:51:49;;;;;;;45.60;29.80;;;6.80;99.90;;;;;;5051730;28;20059;-86
2023/02/20 05:54:36;;;;;;;52.53;31.58;;;6.80;99.90;;;;;;5091838;28;20040;-88
2023/02/20 05:57:02;;;;;;;49.13;29.75;;;6.80;99.90;;;;;;5062434;28;20095;-87
2023/02/20 05:59:28;;;;;;;52.15;29.77;;;6.90;99.90;;;;;;5049452;28;20116;-89
2023/02/20 06:01:59;;;;;;;50.78;30.15;;;6.90;99.90;;;;;;5067933;28;20105;-87
2023/02/20 06:04:25;;;;;;;45.85;28.50;;;6.90;99.90;;;;;;5073943;28;20558;-86
2023/02/20 06:06:51;;;;;;;49.40;28.20;;;6.90;99.90;;;;;;5067640;28;20032;-88
2023/02/20 06:09:17;;;;;;;41.50;27.70;;;6.90;99.90;;;;;;5074430;28;20069;-87
2023/02/20 06:12:01;;;;;;;43.30;26.75;;;6.90;99.90;;;;;;5063540;28;20052;-90
2023/02/20 06:14:37;;;;;;;44.58;27.00;;;6.90;99.90;;;;;;5067470;28;20020;-88
2023/02/20 06:17:02;;;;;;;48.05;28.40;;;6.90;99.90;;;;;;5053291;28;20100;-89
2023/02/20 06:19:28;;;;;;;41.25;26.85;;;6.90;99.90;;;;;;5070307;28;20452;-88
2023/02/20 06:21:54;;;;;;;38.58;23.75;;;7.00;99.90;;;;;;5056075;28;20560;-88
2023/02/20 06:24:20;;;;;;;40.40;24.42;;;6.90;99.90;;;;;;5053262;28;20368;-89
2023/02/20 06:26:46;;;;;;;42.53;24.67;;;6.90;99.90;;;;;;5073495;28;20036;-89
2023/02/20 06:29:15;;;;;;;40.95;24.60;;;7.00;99.90;;;;;;5052327;28;20498;-89
2023/02/20 06:31:41;;;;;;;46.15;26.23;;;7.00;99.90;;;;;;5079535;28;20465;-88
2023/02/20 06:34:07;;;;;;;41.88;24.83;;;7.00;99.90;;;;;;5056518;28;20070;-85
2023/02/20 06:36:36;;;;;;;44.67;26.23;;;7.00;99.90;;;;;;5055473;28;20499;-88
2023/02/20 06:39:03;;;;;;;43.30;24.48;;;7.00;99.90;;;;;;5053452;28;20056;-87
2023/02/20 06:41:28;;;;;;;36.30;22.13;;;7.00;99.90;;;;;;5079011;28;20024;-87
2023/02/20 06:43:54;;;;;;;32.80;20.10;;;7.00;99.90;;;;;;5070388;28;20111;-85
2023/02/20 06:46:21;;;;;;;45.13;24.80;;;7.00;99.90;;;;;;5054348;28;20040;-88
2023/02/20 06:48:50;;;;;;;43.78;24.52;;;7.10;99.90;;;;;;5053929;28;20039;-88
2023/02/20 06:51:19;;;;;;;37.10;22.45;;;7.10;99.90;;;;;;5073243;28;20024;-88
2023/02/20 06:53:45;;;;;;;36.80;22.17;;;7.10;99.90;;;;;;5068919;28;20025;-88
2023/02/20 06:56:17;;;;;;;47.97;25.02;;;7.20;99.90;;;;;;5055516;28;20598;-87
2023/02/20 06:58:45;;;;;;;41.65;22.70;;;7.20;99.90;;;;;;5066826;28;20024;-86
2023/02/20 07:01:11;;;;;;;39.83;20.52;;;7.20;99.90;;;;;;5050905;28;20522;-88
2023/02/20 07:03:36;;;;;;;31.52;19.83;;;7.20;99.90;;;;;;5071132;28;20035;-88
2023/02/20 07:06:02;;;;;;;33.35;19.45;;;7.20;99.90;;;;;;5069913;28;20040;-86
2023/02/20 07:08:28;;;;;;;39.22;19.60;;;7.20;99.90;;;;;;5053764;28;20020;-85
2023/02/20 07:10:54;;;;;;;36.90;20.08;;;7.30;99.90;;;;;;5080512;28;20120;-88
2023/02/20 07:13:21;;;;;;;37.15;21.75;;;7.30;99.90;;;;;;5068100;28;20469;-88
2023/02/20 07:15:47;;;;;;;39.00;20.95;;;7.30;99.90;;;;;;5071477;28;20035;-87
2023/02/20 07:18:13;;;;;;;33.75;20.90;;;7.30;99.90;;;;;;5068282;28;20111;-88
2023/02/20 07:20:39;;;;;;;41.72;21.73;;;7.30;99.90;;;;;;5068192;28;20123;-89
2023/02/20 07:23:05;;;;;;;38.90;21.00;;;7.40;99.90;;;;;;5052857;28;20017;-87
2023/02/20 07:25:30;;;;;;;37.78;20.77;;;7.40;99.90;;;;;;5052750;28;20045;-87
2023/02/20 07:27:56;;;;;;;35.60;20.98;;;7.40;99.90;;;;;;5054185;28;20030;-87
2023/02/20 07:30:23;;;;;;;36.75;19.92;;;7.40;99.90;;;;;;5052406;28;20024;-86
2023/02/20 07:32:50;;;;;;;35.85;20.92;;;7.40;99.90;;;;;;5048733;28;20029;-83
2023/02/20 07:35:15;;;;;;;37.17;20.40;;;7.50;99.90;;;;;;5051027;28;20033;-86
2023/02/20 07:37:41;;;;;;;33.55;19.17;;;7.50;99.90;;;;;;5064325;28;20434;-87
2023/02/20 07:40:08;;;;;;;37.00;20.73;;;7.50;99.90;;;;;;5067804;28;20032;-87
2023/02/20 07:42:33;;;;;;;38.25;20.88;;;7.40;99.90;;;;;;5054021;28;20086;-87
2023/02/20 07:45:07;;;;;;;35.63;20.40;;;7.50;99.90;;;;;;5054943;28;20081;-87
2023/02/20 07:47:32;;;;;;;37.65;19.42;;;7.50;99.90;;;;;;5068385;28;20032;-84
2023/02/20 07:49:58;;;;;;;35.17;19.95;;;7.50;99.90;;;;;;5069391;28;20062;-85
2023/02/20 07:52:24;;;;;;;37.80;21.77;;;7.50;99.90;;;;;;5068649;28;20027;-87
2023/02/20 07:54:49;;;;;;;32.80;19.15;;;7.50;99.90;;;;;;5052032;28;20495;-88
2023/02/20 07:57:15;;;;;;;41.72;20.70;;;7.50;99.90;;;;;;5068860;28;20038;-87
2023/02/20 07:59:41;;;;;;;37.47;19.52;;;7.50;99.90;;;;;;5053146;28;20535;-86
2023/02/20 08:02:06;;;;;;;37.40;20.38;;;7.60;99.90;;;;;;5040089;28;20028;-86
2023/02/20 08:04:32;;;;;;;40.47;22.13;;;7.60;99.90;;;;;;5048521;28;20141;-86
2023/02/20 08:06:58;;;;;;;37.28;20.65;;;7.60;99.90;;;;;;5042788;28;20085;-86
2023/02/20 08:09:23;;;;;;;37.47;20.75;;;7.60;99.90;;;;;;5051641;28;20029;-88
2023/02/20 08:11:49;;;;;;;33.88;21.05;;;7.60;99.90;;;;;;5079695;28;20095;-85
2023/02/20 08:14:15;;;;;;;36.47;21.00;;;7.60;99.90;;;;;;5066755;28;20027;-87
2023/02/20 08:16:41;;;;;;;35.22;20.73;;;7.60;99.90;;;;;;5063703;28;20390;-86
2023/02/20 08:19:07;;;;;;;34.83;22.08;;;7.60;99.90;;;;;;5079853;28;20024;-86
2023/02/20 08:21:32;;;;;;;36.47;21.17;;;7.60;99.90;;;;;;5047495;28;20046;-86
2023/02/20 08:23:58;;;;;;;38.67;19.98;;;7.70;99.90;;;;;;5050086;28;20074;-86
2023/02/20 08:26:24;;;;;;;39.10;21.10;;;7.70;99.90;;;;;;5070047;28;20135;-86
2023/02/20 08:28:51;;;;;;;41.92;23.98;;;7.70;99.90;;;;;;5064738;28;20074;-87
2023/02/20 08:31:17;;;;;;;35.60;21.63;;;7.80;99.90;;;;;;5066920;28;20541;-87
2023/02/20 08:33:43;;;;;;;40.17;21.38;;;7.80;99.90;;;;;;5050477;28;20060;-84
2023/02/20 08:36:08;;;;;;;43.83;21.85;;;7.80;99.90;;;;;;5062979;28;20052;-84
2023/02/20 08:38:36;;;;;;;37.55;21.98;;;7.80;99.90;;;;;;5068302;28;20024;-87
2023/02/20 08:41:06;;;;;;;39.30;23.05;;;7.80;99.90;;;;;;5075104;28;20036;-86
2023/02/20 08:43:33;;;;;;;39.67;21.98;;;7.80;99.90;;;;;;5049554;28;20029;-87
2023/02/20 08:45:59;;;;;;;37.28;20.45;;;7.90;99.90;;;;;;5050094;28;20193;-86
2023/02/20 08:48:24;;;;;;;40.85;21.00;;;7.90;99.90;;;;;;5077682;28;20111;-87
2023/02/20 08:50:50;;;;;;;36.65;20.83;;;7.90;99.90;;;;;;5052712;28;20477;-86
2023/02/20 08:53:16;;;;;;;36.05;21.58;;;7.90;99.90;;;;;;5050219;28;20080;-87
2023/02/20 08:55:42;;;;;;;35.97;19.42;;;7.90;99.90;;;;;;5065032;28;20127;-88
2023/02/20 08:58:08;;;;;;;32.42;18.92;;;7.90;99.90;;;;;;5076560;28;20032;-88
2023/02/20 09:00:34;;;;;;;32.75;19.42;;;7.90;99.90;;;;;;5064018;28;20039;-88
2023/02/20 09:02:59;;;;;;;40.22;21.65;;;7.90;99.90;;;;;;5066317;28;20476;-87
2023/02/20 09:05:25;;;;;;;42.63;21.50;;;8.00;99.90;;;;;;5048886;28;20101;-87
2023/02/20 09:07:51;;;;;;;40.35;21.95;;;8.00;99.90;;;;;;5063778;28;20040;-86
2023/02/20 09:10:18;;;;;;;32.90;20.65;;;7.90;99.90;;;;;;5062352;28;20059;-87
2023/02/20 09:12:45;;;;;;;32.97;18.88;;;8.00;99.90;;;;;;5077582;28;20020;-87
2023/02/20 09:15:11;;;;;;;35.10;20.65;;;8.00;99.90;;;;;;5068333;28;20039;-86
2023/02/20 09:17:38;;;;;;;35.08;20.45;;;8.00;99.90;;;;;;5075846;28;20254;-87
2023/02/20 09:20:08;;;;;;;31.15;18.60;;;8.10;99.90;;;;;;5065599;28;20032;-88
2023/02/20 09:22:34;;;;;;;40.72;20.88;;;8.20;99.90;;;;;;5051189;28;20106;-87
2023/02/20 09:25:00;;;;;;;37.42;20.27;;;8.20;99.90;;;;;;5051769;28;20115;-88
2023/02/20 09:27:25;;;;;;;31.98;18.15;;;8.20;99.90;;;;;;5053339;28;20128;-87
2023/02/20 09:29:51;;;;;;;24.02;16.00;;;8.30;99.90;;;;;;5065605;28;20017;-89
2023/02/20 09:32:17;;;;;;;29.20;16.50;;;8.30;99.90;;;;;;5049167;28;20515;-89
2023/02/20 09:34:43;;;;;;;31.63;19.30;;;8.40;99.90;;;;;;5064711;28;20034;-87
2023/02/20 09:37:10;;;;;;;29.90;16.15;;;8.40;99.90;;;;;;5069658;28;20484;-88
2023/02/20 09:39:35;;;;;;;30.42;18.10;;;8.50;99.90;;;;;;5049071;28;20028;-87
2023/02/20 09:42:01;;;;;;;28.95;16.42;;;8.40;99.90;;;;;;5048122;28;20029;-88
2023/02/20 09:44:47;;;;;;;31.77;16.95;;;8.40;99.90;;;;;;5071871;28;20124;-88
2023/02/20 09:47:37;;;;;;;30.05;16.63;;;8.50;99.90;;;;;;5029911;28;20123;-88
2023/02/20 09:50:10;;;;;;;29.50;16.25;;;8.50;99.90;;;;;;5048568;28;20040;-88
2023/02/20 09:52:39;;;;;;;25.90;15.82;;;8.50;99.90;;;;;;5066815;28;20028;-88
2023/02/20 09:55:11;;;;;;;27.42;16.58;;;8.50;99.90;;;;;;5049322;28;20116;-88
2023/02/20 09:57:38;;;;;;;30.23;16.55;;;8.50;99.90;;;;;;5063688;28;20091;-87
2023/02/20 10:00:23;;;;;;;29.80;16.48;;;8.50;99.90;;;;;;5048819;28;20021;-89
2023/02/20 10:03:17;;;;;;;29.60;16.88;;;8.50;99.90;;;;;;5067574;28;20065;-88
2023/02/20 10:05:44;;;;;;;31.80;16.10;;;8.50;99.90;;;;;;5046567;28;20040;-89
2023/02/20 10:08:14;;;;;;;31.00;16.15;;;8.50;99.90;;;;;;5069073;28;20464;-88
2023/02/20 10:10:40;;;;;;;23.73;15.65;;;8.50;99.90;;;;;;5065706;28;20059;-88
2023/02/20 10:13:35;;;;;;;24.27;15.68;;;8.50;99.90;;;;;;5067612;28;20028;-88
2023/02/20 10:16:12;;;;;;;22.65;14.35;;;8.40;99.90;;;;;;5046603;28;20032;-88
2023/02/20 10:18:49;;;;;;;33.35;18.92;;;8.40;99.90;;;;;;5064413;28;20039;-87
2023/02/20 10:21:42;;;;;;;29.42;17.55;;;8.40;99.90;;;;;;5049520;28;20028;-89
2023/02/20 10:24:37;;;;;;;32.60;16.95;;;8.40;99.90;;;;;;5052184;28;20448;-87
2023/02/20 10:27:26;;;;;;;33.88;16.98;;;8.40;99.90;;;;;;5040796;28;20037;-89
2023/02/20 10:29:53;;;;;;;35.00;18.38;;;8.40;99.90;;;;;;5047484;28;20028;-89
2023/02/20 10:32:27;;;;;;;29.67;16.98;;;8.40;99.90;;;;;;5065401;28;20043;-88
2023/02/20 10:35:10;;;;;;;30.88;18.52;;;8.40;99.90;;;;;;5072609;28;20032;-87
2023/02/20 10:37:46;;;;;;;33.33;18.55;;;8.40;99.90;;;;;;5049761;28;20049;-88
2023/02/20 10:40:32;;;;;;;33.53;19.63;;;8.40;99.90;;;;;;5076910;28;20473;-85
2023/02/20 10:43:17;;;;;;;30.67;19.10;;;8.40;99.90;;;;;;5063887;28;20426;-92
2023/02/20 10:45:49;;;;;;;33.25;19.40;;;8.40;99.90;;;;;;5040885;28;20119;-87
2023/02/20 10:48:15;;;;;;;33.92;18.95;;;8.40;99.90;;;;;;5063254;28;20021;-85
2023/02/20 10:50:41;;;;;;;36.42;18.90;;;8.40;99.90;;;;;;5047938;28;20039;-88
2023/02/20 10:53:12;;;;;;;29.08;19.02;;;8.50;99.90;;;;;;5061578;28;20025;-89
2023/02/20 10:55:51;;;;;;;28.70;18.83;;;8.40;99.90;;;;;;5050095;28;20039;-86
2023/02/20 10:58:39;;;;;;;29.95;17.95;;;8.40;99.90;;;;;;5068294;28;20378;-88
2023/02/20 11:01:09;;;;;;;32.47;17.90;;;8.40;99.90;;;;;;5053129;28;20029;-87
2023/02/20 11:03:43;;;;;;;;;;;8.40;99.90;;;;;;5051956;28;20024;-87
2023/02/20 11:06:13;;;;;;;31.55;18.15;;;8.50;99.90;;;;;;5066847;28;19970;-88
2023/02/20 11:08:39;;;;;;;30.10;17.73;;;8.40;99.90;;;;;;5052006;28;20028;-88
2023/02/20 11:11:28;;;;;;;30.25;16.58;;;8.50;99.90;;;;;;5049935;28;20051;-89
2023/02/20 11:13:57;;;;;;;36.50;17.33;;;8.50;99.90;;;;;;5051378;28;20040;-88
2023/02/20 11:16:32;;;;;;;31.35;16.88;;;8.50;99.90;;;;;;5049266;28;20158;-89
2023/02/20 11:19:06;;;;;;;26.38;15.77;;;8.50;99.90;;;;;;5067920;28;20504;-85
2023/02/20 11:21:38;;;;;;;25.95;15.35;;;8.50;99.90;;;;;;5063241;28;20073;-87
2023/02/20 11:24:25;;;;;;;28.20;13.93;;;8.60;99.90;;;;;;5051715;28;20032;-88
2023/02/20 11:27:05;;;;;;;25.92;15.05;;;8.60;99.90;;;;;;5049350;28;20031;-85
2023/02/20 11:29:40;;;;;;;25.90;13.88;;;8.50;99.90;;;;;;5068064;28;20030;-88
2023/02/20 11:32:24;;;;;;;22.27;12.70;;;8.50;99.90;;;;;;5072412;28;20511;-86
2023/02/20 11:35:18;;;;;;;27.17;15.80;;;8.60;99.90;;;;;;5070978;28;20029;-88
2023/02/20 11:38:11;;;;;;;27.45;14.98;;;8.60;99.90;;;;;;5068693;28;20024;-88
2023/02/20 11:40:37;;;;;;;17.45;11.75;;;8.60;99.90;;;;;;5077248;28;20037;-89
2023/02/20 11:43:36;;;;;;;24.98;12.98;;;8.70;99.90;;;;;;5067801;28;20389;-85
2023/02/20 11:46:20;;;;;;;25.20;13.88;;;8.70;99.90;;;;;;5068188;28;20040;-88
2023/02/20 11:49:07;;;;;;;30.52;14.63;;;8.70;99.90;;;;;;5047617;28;20035;-88
2023/02/20 11:51:45;;;;;;;28.25;13.88;;;8.70;99.90;;;;;;5050207;28;20119;-88
2023/02/20 11:54:17;;;;;;;22.95;14.07;;;8.70;99.90;;;;;;5046453;28;20035;-85
2023/02/20 11:57:15;;;;;;;20.92;11.93;;;8.70;99.90;;;;;;5066695;28;20033;-87
2023/02/20 11:59:47;;;;;;;28.80;13.77;;;8.70;99.90;;;;;;5050365;28;20535;-89
2023/02/20 12:02:18;;;;;;;18.15;12.15;;;8.70;99.90;;;;;;5069933;28;20024;-88
2023/02/20 12:05:00;;;;;;;23.80;12.10;;;8.70;99.90;;;;;;5066105;28;20043;-86
2023/02/20 12:07:32;;;;;;;22.05;10.68;;;8.80;99.90;;;;;;5053514;28;20042;-87
2023/02/20 12:10:21;;;;;;;20.85;9.90;;;8.70;99.90;;;;;;5062057;28;20612;-89
2023/02/20 12:12:47;;;;;;;18.77;8.73;;;8.80;99.90;;;;;;5059524;28;20042;-86
2023/02/20 12:15:18;;;;;;;17.60;8.90;;;8.70;99.90;;;;;;5047866;28;20024;-84
2023/02/20 12:17:56;;;;;;;18.60;9.57;;;8.80;99.90;;;;;;5062085;28;20503;-89
2023/02/20 12:20:28;;;;;;;18.45;8.30;;;8.80;99.90;;;;;;5076920;28;20052;-89
2023/02/20 12:23:15;;;;;;;19.75;7.90;;;8.80;99.90;;;;;;5069714;28;20118;-89
2023/02/20 12:26:12;;;;;;;18.75;7.88;;;8.80;99.90;;;;;;5082675;28;20515;-86
2023/02/20 12:29:03;;;;;;;19.30;7.25;;;8.80;99.90;;;;;;5064342;28;20090;-87
2023/02/20 12:32:26;;;;;;;13.07;7.20;;;8.80;99.90;;;;;;5049246;28;20497;-88
2023/02/20 12:35:05;;;;;;;10.93;6.70;;;8.80;99.90;;;;;;5008245;28;20451;-89
2023/02/20 12:37:49;;;;;;;15.23;6.32;;;8.90;99.90;;;;;;4989270;28;20041;-89
2023/02/20 12:40:24;;;;;;;16.63;6.10;;;8.80;99.90;;;;;;5019247;28;20049;-88
2023/02/20 12:43:12;;;;;;;11.35;5.53;;;8.80;99.90;;;;;;5007284;28;20041;-86
2023/02/20 12:45:45;;;;;;;11.93;5.15;;;8.80;99.90;;;;;;5020705;28;20041;-88
2023/02/20 12:48:33;;;;;;;9.23;3.88;;;8.80;99.90;;;;;;5004042;28;20084;-86
2023/02/20 12:51:24;;;;;;;11.90;4.75;;;8.90;99.90;;;;;;4988453;28;20042;-90
2023/02/20 12:54:02;;;;;;;11.18;4.90;;;8.90;99.90;;;;;;5007000;28;20165;-88
2023/02/20 12:56:43;;;;;;;9.90;4.50;;;8.90;99.90;;;;;;4987213;28;20056;-89
2023/02/20 12:59:14;;;;;;;11.05;4.15;;;8.90;99.90;;;;;;5001658;28;20120;-85
2023/02/20 13:01:40;;;;;;;8.52;3.97;;;8.90;99.90;;;;;;4991300;28;20029;-87
2023/02/20 13:04:19;;;;;;;7.78;3.60;;;8.90;99.90;;;;;;5020249;28;20382;-87
2023/02/20 13:07:09;;;;;;;5.40;3.60;;;8.90;99.90;;;;;;5075770;28;20036;-90
2023/02/20 13:09:39;;;;;;;11.38;4.30;;;8.90;99.90;;;;;;5077934;28;20020;-90
2023/02/20 13:12:13;;;;;;;9.38;3.22;;;9.00;99.90;;;;;;5067489;28;20119;-89
2023/02/20 13:14:54;;;;;;;7.90;3.72;;;9.00;99.90;;;;;;5048020;28;20506;-91
2023/02/20 13:17:41;;;;;;;12.13;3.95;;;9.10;99.90;;;;;;5051809;28;20530;-91